Time;durP1;ratioP1;P1;durP2;ratioP2;P2;SDS_P1;SDS_P2;PMS_P1;PMS_P2;Temp;Humidity;BMP_temperature;BMP_pressure;BME280_temperature;BME280_humidity;BME280_pressure;Samples;Min_cycle;Max_cycle;Signal;HPM_P1;HPM_P2
2022/06/11 00:01:49;;;;;;;31.23;13.93;;;;;;;15.35;95.18;101995.69;4935663;29;20411;-51
2022/06/11 00:04:28;;;;;;;28.35;12.75;;;;;;;15.25;94.80;102004.94;4935191;29;20028;-51
2022/06/11 00:06:58;;;;;;;32.17;14.88;;;;;;;15.21;95.92;101997.91;4935660;29;20491;-51
2022/06/11 00:09:25;;;;;;;31.73;14.85;;;;;;;15.15;96.14;101998.56;4935655;29;20038;-51
2022/06/11 00:11:53;;;;;;;34.63;15.82;;;;;;;15.12;95.87;101997.63;4934755;29;20034;-50
2022/06/11 00:14:24;;;;;;;25.02;14.80;;;;;;;15.10;96.05;101999.28;4935553;29;20376;-49
2022/06/11 00:16:50;;;;;;;34.63;15.20;;;;;;;15.06;96.62;101998.31;4935475;29;20039;-50
2022/06/11 00:19:18;;;;;;;31.88;14.93;;;;;;;15.06;96.30;101997.44;4934849;29;20039;-49
2022/06/11 00:21:44;;;;;;;33.58;14.73;;;;;;;15.02;96.30;101996.47;4935631;29;20028;-50
2022/06/11 00:24:10;;;;;;;30.98;15.05;;;;;;;14.94;96.10;101992.78;4935396;29;20111;-50
2022/06/11 00:26:37;;;;;;;36.25;14.88;;;;;;;14.92;96.59;102004.81;4934681;29;20052;-51
2022/06/11 00:29:04;;;;;;;30.05;14.18;;;;;;;14.92;96.79;101990.09;4935626;29;20032;-50
2022/06/11 00:31:30;;;;;;;36.38;15.25;;;;;;;14.94;96.22;101997.97;4935623;29;20023;-50
2022/06/11 00:33:55;;;;;;;30.25;13.43;;;;;;;14.94;96.12;101990.19;4934696;29;20114;-51
2022/06/11 00:36:21;;;;;;;26.10;13.02;;;;;;;14.96;96.15;101996.28;4935292;29;20428;-50
2022/06/11 00:38:48;;;;;;;23.63;13.15;;;;;;;14.97;95.81;101993.72;4935400;29;20078;-49
2022/06/11 00:41:16;;;;;;;27.50;13.23;;;;;;;14.95;95.74;101994.50;4934676;29;20055;-51
2022/06/11 00:43:42;;;;;;;26.38;13.32;;;;;;;14.91;95.93;101987.47;4935562;29;20032;-49
2022/06/11 00:46:38;;;;;;;25.55;12.32;;;;;;;14.88;95.66;101993.44;4934587;29;20384;-47
2022/06/11 00:49:11;;;;;;;22.60;12.87;;;;;;;14.82;95.90;101988.97;4935150;29;20412;-51
2022/06/11 00:51:37;;;;;;;30.90;13.48;;;;;;;14.76;95.98;101983.59;4935283;29;20035;-51
2022/06/11 00:54:13;;;;;;;19.92;11.40;;;;;;;14.68;96.20;101987.66;4937077;29;20114;-51
2022/06/11 00:56:44;;;;;;;27.35;11.68;;;;;;;14.65;96.26;101982.38;4938947;29;20480;-48
2022/06/11 00:59:13;;;;;;;29.13;12.52;;;;;;;14.62;96.50;101987.44;4938781;29;20032;-50
2022/06/11 01:01:39;;;;;;;20.27;12.20;;;;;;;14.61;96.51;101983.06;4938140;29;20031;-51
2022/06/11 01:04:36;;;;;;;25.30;12.23;;;;;;;14.58;96.34;101983.88;4938654;29;20095;-49
2022/06/11 01:07:14;;;;;;;24.23;12.65;;;;;;;14.56;97.04;101984.66;4938765;29;20020;-50
2022/06/11 01:09:45;;;;;;;26.65;13.02;;;;;;;14.56;96.91;101979.47;4938961;29;20086;-50
2022/06/11 01:12:29;;;;;;;25.85;12.73;;;;;;;14.54;97.18;101975.91;4938454;29;20028;-51
2022/06/11 01:15:16;;;;;;;23.42;12.55;;;;;;;14.53;96.97;101984.56;4937790;29;20391;-49
2022/06/11 01:17:58;;;;;;;26.67;12.13;;;;;;;14.53;97.14;101988.03;4938689;29;20468;-48
2022/06/11 01:20:48;;;;;;;26.20;13.18;;;;;;;14.49;97.06;101973.19;4938557;29;20038;-50
2022/06/11 01:23:53;;;;;;;25.50;12.68;;;;;;;14.48;96.68;101977.50;4937705;29;20042;-51
2022/06/11 01:26:46;;;;;;;31.00;13.98;;;;;;;14.46;97.47;101976.59;4938206;29;20411;-50
2022/06/11 01:30:02;;;;;;;31.92;13.68;;;;;;;14.47;96.93;101975.75;4937653;29;20030;-50
2022/06/11 01:32:55;;;;;;;29.42;13.55;;;;;;;14.45;97.58;101984.31;4917208;29;20159;-50
2022/06/11 01:35:40;;;;;;;25.90;13.55;;;;;;;14.44;98.02;101975.63;4916618;29;20552;-50
2022/06/11 01:38:24;;;;;;;31.10;14.13;;;;;;;14.44;98.29;101974.78;4903872;29;20510;-50
2022/06/11 01:41:18;;;;;;;28.02;14.70;;;;;;;14.46;98.52;101967.91;4938147;29;20032;-51
2022/06/11 01:43:47;;;;;;;29.50;14.18;;;;;;;14.45;98.00;101974.81;4937647;29;20106;-50
2022/06/11 01:46:31;;;;;;;26.83;14.25;;;;;;;14.44;97.99;101975.63;4938005;29;20057;-48
2022/06/11 01:49:06;;;;;;;30.13;13.93;;;;;;;14.37;98.20;101973.69;4938099;29;20184;-48
2022/06/11 01:51:50;;;;;;;31.42;15.70;;;;;;;14.32;98.71;101970.94;4937241;29;20380;-48
2022/06/11 01:54:33;;;;;;;35.10;15.77;;;;;;;14.30;98.71;101963.94;4938065;29;20482;-47
2022/06/11 01:57:13;;;;;;;33.28;14.45;;;;;;;14.32;99.24;101964.91;4937241;29;20047;-50
2022/06/11 02:00:01;;;;;;;28.50;14.55;;;;;;;14.29;98.71;101968.28;4937958;29;20031;-48
2022/06/11 02:02:54;;;;;;;28.88;14.43;;;;;;;14.26;99.24;101970.75;4937954;29;20076;-49
2022/06/11 02:05:42;;;;;;;34.30;14.95;;;;;;;14.26;98.52;101965.56;4936130;29;20528;-49
2022/06/11 02:08:39;;;;;;;31.33;14.13;;;;;;;14.21;98.58;101974.03;4937522;29;20031;-50
2022/06/11 02:11:22;;;;;;;24.35;13.85;;;;;;;14.20;99.33;101974.84;4936923;29;20031;-48
2022/06/11 02:14:08;;;;;;;29.30;14.23;;;;;;;14.16;99.44;101971.28;4937790;29;20044;-50
2022/06/11 02:17:07;;;;;;;30.60;14.35;;;;;;;14.13;99.08;101977.25;4937597;29;20043;-50
2022/06/11 02:19:54;;;;;;;32.30;14.85;;;;;;;14.12;99.91;101972.00;4932765;29;20035;-51
2022/06/11 02:22:25;;;;;;;32.92;15.93;;;;;;;14.13;100.00;101979.84;4937458;29;20032;-50
2022/06/11 02:25:01;;;;;;;30.58;14.63;;;;;;;14.11;100.00;101971.13;4936436;29;20031;-48
2022/06/11 02:27:29;;;;;;;29.42;14.85;;;;;;;14.06;99.68;101980.47;4937451;29;20044;-51
2022/06/11 02:29:56;;;;;;;30.45;14.43;;;;;;;14.07;100.00;101982.25;4937421;29;20027;-49
2022/06/11 02:32:24;;;;;;;34.80;15.60;;;;;;;14.03;100.00;101985.53;4936583;29;20039;-50
2022/06/11 02:34:54;;;;;;;31.23;15.57;;;;;;;14.03;100.00;101988.13;4937275;29;20051;-51
2022/06/11 02:37:27;;;;;;;26.25;14.48;;;;;;;13.98;100.00;101987.09;4937014;29;20028;-47
2022/06/11 02:39:56;;;;;;;35.35;15.20;;;;;;;13.94;100.00;101995.59;4936546;29;20032;-50
2022/06/11 02:42:24;;;;;;;33.17;15.25;;;;;;;13.92;100.00;101989.50;4937195;29;20024;-49
2022/06/11 02:44:50;;;;;;;31.88;15.82;;;;;;;13.90;100.00;101991.16;4936946;29;20083;-49
2022/06/11 02:47:18;;;;;;;32.83;14.98;;;;;;;13.92;100.00;102002.47;4936191;29;20118;-50
2022/06/11 02:49:44;;;;;;;30.27;15.15;;;;;;;13.86;100.00;102004.84;4937011;29;20031;-49
2022/06/11 02:52:17;;;;;;;33.83;14.93;;;;;;;13.80;100.00;102000.31;4936604;29;20042;-50
2022/06/11 02:54:43;;;;;;;35.15;15.82;;;;;;;13.78;100.00;102002.84;4936270;29;20028;-50
2022/06/11 02:57:13;;;;;;;29.00;15.02;;;;;;;13.77;100.00;102011.44;4936664;29;20038;-51
2022/06/11 02:59:39;;;;;;;30.40;14.13;;;;;;;13.74;100.00;102006.16;4936946;29;20024;-50
2022/06/11 03:02:05;;;;;;;30.83;14.23;;;;;;;13.74;100.00;102008.75;4935781;29;20026;-49
2022/06/11 03:04:31;;;;;;;26.65;14.15;;;;;;;13.74;100.00;102005.28;4936506;29;20075;-51
2022/06/11 03:06:57;;;;;;;34.83;13.05;;;;;;;13.70;100.00;102009.47;4935605;29;20038;-52
2022/06/11 03:09:26;;;;;;;29.35;13.65;;;;;;;13.70;100.00;102012.06;4936616;29;20091;-53
2022/06/11 03:11:51;;;;;;;29.58;13.98;;;;;;;13.69;100.00;102015.47;4936242;29;20059;-53
2022/06/11 03:14:16;;;;;;;29.52;14.35;;;;;;;13.68;100.00;102021.47;4935623;29;20078;-52
2022/06/11 03:16:43;;;;;;;28.90;13.02;;;;;;;13.68;100.00;102016.31;4936295;29;20036;-51
2022/06/11 03:19:09;;;;;;;26.23;13.23;;;;;;;13.70;100.00;102019.84;4936058;29;20396;-49
2022/06/11 03:21:35;;;;;;;28.23;13.27;;;;;;;13.70;100.00;102019.84;4935822;29;20031;-51
2022/06/11 03:24:01;;;;;;;24.85;13.30;;;;;;;13.71;100.00;102021.63;4936400;29;20027;-51
2022/06/11 03:26:27;;;;;;;27.35;13.60;;;;;;;13.74;100.00;102026.03;4936289;29;20530;-51
2022/06/11 03:28:52;;;;;;;27.13;13.05;;;;;;;13.78;100.00;102023.56;4935441;29;20035;-50
2022/06/11 03:31:18;;;;;;;26.88;13.70;;;;;;;13.83;100.00;102029.78;4936207;29;20106;-48
2022/06/11 03:33:44;;;;;;;28.38;13.18;;;;;;;13.90;100.00;102027.44;4936120;29;20028;-51
2022/06/11 03:36:12;;;;;;;34.95;12.68;;;;;;;13.93;100.00;102035.28;4934964;29;20043;-50
2022/06/11 03:38:40;;;;;;;28.75;12.65;;;;;;;13.99;100.00;102035.53;4936313;29;20020;-52
2022/06/11 03:41:06;;;;;;;29.25;13.15;;;;;;;14.05;100.00;102033.16;4936161;29;20060;-51
2022/06/11 03:43:32;;;;;;;28.45;12.50;;;;;;;14.11;100.00;102040.22;4935363;29;20119;-51
2022/06/11 03:45:58;;;;;;;24.17;11.73;;;;;;;14.16;100.00;102036.09;4935936;29;20103;-49
2022/06/11 03:48:25;;;;;;;23.73;11.15;;;;;;;14.21;100.00;102047.50;4935889;29;20110;-51
2022/06/11 03:50:51;;;;;;;24.65;10.52;;;;;;;14.26;99.10;102047.66;4935234;29;20063;-51
2022/06/11 03:53:17;;;;;;;26.60;11.13;;;;;;;14.30;98.58;102049.53;4935748;29;20061;-50
2022/06/11 03:55:44;;;;;;;19.35;10.38;;;;;;;14.35;98.56;102052.28;4935771;29;20495;-51
2022/06/11 03:58:10;;;;;;;24.65;10.73;;;;;;;14.40;97.74;102055.91;4934951;29;20051;-50
2022/06/11 04:03:22;;;;;;;22.60;10.30;;;;;;;14.45;96.69;102060.41;4935274;29;20042;-49
2022/06/11 04:05:49;;;;;;;22.67;9.40;;;;;;;14.47;97.11;102060.44;4935914;29;20035;-50
2022/06/11 04:08:16;;;;;;;23.88;10.10;;;;;;;14.50;96.60;102060.56;4935786;29;20024;-51
2022/06/11 04:10:42;;;;;;;21.42;8.70;;;;;;;14.51;95.89;102062.31;4935069;29;20039;-50
2022/06/11 04:13:08;;;;;;;22.13;9.20;;;;;;;14.55;95.68;102071.09;4935544;29;20034;-51
2022/06/11 04:15:34;;;;;;;25.45;9.93;;;;;;;14.56;95.53;102068.53;4935555;29;20031;-49
2022/06/11 04:18:01;;;;;;;22.70;10.25;;;;;;;14.58;95.28;102071.19;4934954;29;20082;-51
2022/06/11 04:20:26;;;;;;;25.95;10.60;;;;;;;14.58;94.69;102066.88;4935764;29;20466;-51
2022/06/11 04:22:51;;;;;;;20.98;9.38;;;;;;;14.59;95.56;102076.44;4935475;29;20040;-50
2022/06/11 04:25:17;;;;;;;19.10;9.02;;;;;;;14.58;94.95;102078.97;4934571;29;20040;-51
2022/06/11 04:27:43;;;;;;;31.30;10.00;;;;;;;14.59;94.63;102083.31;4936263;29;20595;-49
2022/06/11 04:30:12;;;;;;;26.48;10.30;;;;;;;14.60;93.98;102090.28;4939169;29;20042;-49
2022/06/11 04:32:37;;;;;;;21.85;9.35;;;;;;;14.63;94.13;102090.41;4938547;29;20122;-50
2022/06/11 04:35:03;;;;;;;26.60;8.70;;;;;;;14.65;93.08;102089.66;4939342;29;20067;-50
2022/06/11 04:37:30;;;;;;;27.65;10.35;;;;;;;14.69;92.81;102090.59;4939301;29;20031;-50
2022/06/11 04:39:57;;;;;;;22.10;9.10;;;;;;;14.73;92.17;102092.50;4938432;29;20174;-51
2022/06/11 04:42:23;;;;;;;27.50;9.73;;;;;;;14.77;91.92;102088.25;4939217;29;20103;-49
2022/06/11 04:44:49;;;;;;;25.95;9.68;;;;;;;14.78;91.41;102095.22;4939227;29;20046;-52
2022/06/11 04:47:18;;;;;;;19.33;9.55;;;;;;;14.79;90.20;102091.78;4938224;29;20028;-49
2022/06/11 04:49:45;;;;;;;22.50;8.95;;;;;;;14.84;90.90;102094.56;4939083;29;20031;-51
2022/06/11 04:52:10;;;;;;;25.70;9.97;;;;;;;14.86;90.02;102093.78;4938933;29;20059;-51
2022/06/11 04:54:36;;;;;;;25.77;9.38;;;;;;;14.89;89.85;102100.78;4938301;29;20085;-51
2022/06/11 04:57:01;;;;;;;23.90;9.15;;;;;;;14.94;88.66;102096.63;4938719;29;20042;-48
2022/06/11 04:59:26;;;;;;;25.20;8.98;;;;;;;14.93;88.16;102094.84;4938358;29;20031;-49
2022/06/11 05:01:52;;;;;;;26.67;7.95;;;;;;;14.92;87.29;102095.66;4938978;29;20476;-51
2022/06/11 05:04:17;;;;;;;25.05;8.32;;;;;;;14.92;86.88;102086.16;4938968;29;20024;-51
2022/06/11 05:06:46;;;;;;;21.02;7.43;;;;;;;14.94;86.36;102096.63;4938162;29;20047;-51
2022/06/11 05:09:16;;;;;;;24.48;7.53;;;;;;;14.99;86.25;102092.44;4938533;29;20426;-52
2022/06/11 05:11:42;;;;;;;23.88;7.75;;;;;;;15.06;85.98;102094.38;4938631;29;20495;-51
2022/06/11 05:14:07;;;;;;;24.88;7.63;;;;;;;15.06;83.73;102096.97;4937853;29;20032;-51
2022/06/11 05:16:34;;;;;;;24.65;7.80;;;;;;;15.09;84.16;102102.28;4938761;29;20028;-51
2022/06/11 05:18:59;;;;;;;30.00;7.30;;;;;;;15.11;83.72;102105.78;4938485;29;20090;-50
2022/06/11 05:21:25;;;;;;;31.55;7.95;;;;;;;15.12;82.52;102101.50;4937852;29;20471;-51
2022/06/11 05:23:51;;;;;;;22.23;7.07;;;;;;;15.18;83.69;102105.97;4938496;29;20031;-51
2022/06/11 05:26:24;;;;;;;27.05;7.38;;;;;;;15.19;81.40;102112.94;4938199;29;20047;-50
2022/06/11 05:28:50;;;;;;;35.38;7.55;;;;;;;15.18;81.08;102106.84;4937757;29;20032;-49
2022/06/11 05:31:16;;;;;;;31.50;7.22;;;;;;;15.17;79.59;102106.81;4938778;29;20043;-50
2022/06/11 05:33:42;;;;;;;27.45;5.70;;;;;;;15.10;80.01;102104.03;4938542;29;20098;-49
2022/06/11 05:36:08;;;;;;;27.67;5.60;;;;;;;15.02;77.66;102105.50;4937195;29;20499;-49
2022/06/11 05:38:34;;;;;;;31.10;6.25;;;;;;;14.96;78.88;102102.72;4938257;29;20032;-48
2022/06/11 05:40:59;;;;;;;22.05;5.70;;;;;;;14.94;77.91;102097.47;4936926;29;20468;-49
2022/06/11 05:43:26;;;;;;;26.23;5.15;;;;;;;14.94;80.37;102104.41;4937391;29;20016;-51
2022/06/11 05:45:57;;;;;;;29.48;6.55;;;;;;;14.97;79.11;102113.13;4938178;29;20035;-53
2022/06/11 05:48:27;;;;;;;28.90;5.57;;;;;;;15.00;79.49;102114.94;4938117;29;20048;-52
2022/06/11 05:50:56;;;;;;;28.45;5.70;;;;;;;15.06;80.03;102122.94;4937180;29;20035;-51
2022/06/11 05:53:25;;;;;;;24.63;5.65;;;;;;;15.15;80.12;102117.16;4937879;29;20556;-51
2022/06/11 05:55:51;;;;;;;30.23;5.57;;;;;;;15.18;79.58;102105.97;4937074;29;20055;-50
2022/06/11 05:58:21;;;;;;;31.27;5.70;;;;;;;15.18;79.81;102108.59;4937992;29;20032;-51
2022/06/11 06:00:48;;;;;;;24.02;5.65;;;;;;;15.19;79.60;102112.94;4937984;29;20115;-50
2022/06/11 06:03:14;;;;;;;33.93;6.70;;;;;;;15.25;79.27;102115.75;4936916;29;20032;-50
2022/06/11 06:05:39;;;;;;;29.17;5.93;;;;;;;15.34;77.85;102112.50;4937783;29;20024;-51
2022/06/11 06:08:08;;;;;;;26.38;6.50;;;;;;;15.44;76.73;102106.75;4937510;29;20086;-51
2022/06/11 06:10:34;;;;;;;33.33;6.25;;;;;;;15.54;77.08;102114.00;4937085;29;20031;-51
2022/06/11 06:12:59;;;;;;;33.33;5.90;;;;;;;15.58;76.60;102122.75;4937580;29;20034;-51
2022/06/11 06:15:27;;;;;;;36.53;6.60;;;;;;;15.57;77.14;102123.59;4937568;29;20060;-51
2022/06/11 06:17:54;;;;;;;38.63;5.57;;;;;;;15.56;75.70;102114.06;4936638;29;20028;-51
2022/06/11 06:20:22;;;;;;;37.13;7.03;;;;;;;15.50;75.85;102112.16;4937347;29;20031;-50
2022/06/11 06:22:48;;;;;;;35.58;5.75;;;;;;;15.47;75.10;102119.88;4937440;29;20403;-50
2022/06/11 06:25:17;;;;;;;32.13;6.90;;;;;;;15.60;76.28;102126.31;4936364;29;20177;-51
2022/06/11 06:27:42;;;;;;;35.72;5.50;;;;;;;15.78;75.89;102131.16;4937501;29;20031;-51
2022/06/11 06:30:08;;;;;;;35.38;6.15;;;;;;;15.98;75.63;102123.06;4937160;29;20440;-52
2022/06/11 06:32:34;;;;;;;31.38;6.78;;;;;;;16.24;76.83;102127.25;4936858;29;20450;-52
2022/06/11 06:34:59;;;;;;;34.72;5.82;;;;;;;16.36;74.28;102131.00;4937000;29;20107;-51
2022/06/11 06:37:25;;;;;;;44.80;5.82;;;;;;;16.47;74.16;102137.38;4937263;29;20038;-51
2022/06/11 06:39:50;;;;;;;41.28;6.72;;;;;;;16.49;71.80;102138.31;4936492;29;20030;-51
2022/06/11 06:42:16;;;;;;;30.38;6.03;;;;;;;16.54;72.61;102146.22;4937222;29;20396;-51
2022/06/11 06:44:42;;;;;;;32.30;5.93;;;;;;;16.58;72.02;102150.69;4937157;29;20050;-51
2022/06/11 06:47:07;;;;;;;34.58;6.35;;;;;;;16.65;71.48;102141.31;4936087;29;20463;-51
2022/06/11 06:49:32;;;;;;;37.05;6.90;;;;;;;16.68;72.74;102137.06;4936972;29;20035;-52
2022/06/11 06:51:58;;;;;;;34.28;5.78;;;;;;;16.77;72.05;102139.88;4935678;29;20106;-52
2022/06/11 06:54:23;;;;;;;36.17;6.05;;;;;;;17.05;73.53;102144.91;4936970;29;20510;-52
2022/06/11 06:56:48;;;;;;;32.70;5.97;;;;;;;17.16;70.28;102137.31;4936884;29;20538;-51
2022/06/11 06:59:14;;;;;;;38.40;6.38;;;;;;;17.25;70.68;102140.16;4935746;29;20031;-51
2022/06/11 07:01:39;;;;;;;35.10;6.07;;;;;;;17.27;69.76;102141.06;4936673;29;20484;-52
2022/06/11 07:04:05;;;;;;;35.03;5.85;;;;;;;17.29;70.08;102142.00;4936539;29;20468;-51
2022/06/11 07:06:32;;;;;;;35.22;6.00;;;;;;;17.40;71.06;102140.50;4935827;29;20024;-52
2022/06/11 07:08:58;;;;;;;32.50;5.80;;;;;;;17.47;69.50;102136.31;4936744;29;20052;-52
2022/06/11 07:11:24;;;;;;;36.35;7.25;;;;;;;17.60;68.59;102140.94;4936653;29;20366;-52
2022/06/11 07:13:49;;;;;;;32.38;6.00;;;;;;;17.66;68.75;102139.28;4935825;29;20123;-53
2022/06/11 07:16:19;;;;;;;31.83;5.35;;;;;;;17.74;66.90;102145.53;4936335;29;20028;-52
2022/06/11 07:18:51;;;;;;;44.47;6.80;;;;;;;17.82;67.64;102140.47;4936453;29;20024;-51
2022/06/11 07:21:22;;;;;;;41.55;5.70;;;;;;;17.86;67.24;102131.91;4935680;29;20020;-52
2022/06/11 07:23:58;;;;;;;41.00;5.97;;;;;;;17.95;67.08;102124.28;4936467;29;20043;-51
2022/06/11 07:26:29;;;;;;;36.33;5.93;;;;;;;17.88;67.86;102130.19;4935977;29;20488;-51
2022/06/11 07:29:02;;;;;;;48.10;6.60;;;;;;;17.92;68.62;102137.19;4935309;29;20445;-51
2022/06/11 07:31:30;;;;;;;41.03;5.97;;;;;;;17.92;67.44;102143.31;4936154;29;20039;-52
2022/06/11 07:33:56;;;;;;;46.35;7.40;;;;;;;18.18;66.15;102134.25;4936332;29;20038;-52
2022/06/11 07:36:22;;;;;;;38.08;5.97;;;;;;;18.33;67.06;102142.38;4935345;29;20036;-51
2022/06/11 07:38:47;;;;;;;36.45;6.65;;;;;;;18.38;64.69;102143.31;4936024;29;20063;-53
2022/06/11 07:41:13;;;;;;;50.67;7.75;;;;;;;18.48;66.06;102141.78;4935067;29;20083;-52
2022/06/11 07:43:38;;;;;;;36.22;5.93;;;;;;;18.59;64.61;102145.44;4936111;29;20056;-52
2022/06/11 07:46:05;;;;;;;36.22;7.10;;;;;;;18.51;65.93;102149.66;4935773;29;20063;-51
2022/06/11 07:48:30;;;;;;;42.20;6.55;;;;;;;18.32;63.49;102148.47;4935356;29;20038;-52
2022/06/11 07:50:55;;;;;;;39.33;7.72;;;;;;;18.28;64.65;102141.41;4935933;29;20027;-51
2022/06/11 07:53:23;;;;;;;40.30;6.78;;;;;;;18.25;65.03;102149.19;4935976;29;20028;-51
2022/06/11 07:55:51;;;;;;;42.55;6.68;;;;;;;18.27;65.54;102144.88;4935040;29;20039;-52
2022/06/11 07:58:18;;;;;;;35.42;5.63;;;;;;;18.31;64.68;102144.09;4935708;29;20111;-53
2022/06/11 08:00:49;;;;;;;39.90;5.97;;;;;;;18.36;65.82;102146.75;4935813;29;20042;-51
2022/06/11 08:03:15;;;;;;;33.35;6.07;;;;;;;18.63;68.84;102146.38;4934442;29;20020;-52
2022/06/11 08:05:42;;;;;;;35.28;5.95;;;;;;;18.58;65.94;102142.81;4935875;29;20027;-52
2022/06/11 08:08:08;;;;;;;43.88;7.03;;;;;;;18.56;65.99;102147.13;4935517;29;20036;-52
2022/06/11 08:10:36;;;;;;;33.30;7.78;;;;;;;18.45;66.34;102148.66;4934895;29;20139;-52
2022/06/11 08:13:02;;;;;;;39.28;6.28;;;;;;;18.46;66.70;102155.66;4935443;29;20384;-52
2022/06/11 08:15:28;;;;;;;38.20;6.10;;;;;;;18.56;65.46;102162.78;4935660;29;20019;-51
2022/06/11 08:17:54;;;;;;;44.95;7.03;;;;;;;18.81;65.60;102163.19;4934661;29;20288;-51
2022/06/11 08:20:23;;;;;;;36.03;6.20;;;;;;;19.02;64.39;102158.38;4935588;29;20079;-52
2022/06/11 08:22:50;;;;;;;39.78;6.65;;;;;;;19.12;62.47;102163.72;4935636;29;20456;-53
2022/06/11 08:25:17;;;;;;;36.75;6.93;;;;;;;19.22;63.15;102165.63;4934516;29;20046;-52
2022/06/11 08:27:43;;;;;;;40.00;6.55;;;;;;;19.53;64.27;102161.69;4935445;29;20380;-52
2022/06/11 08:30:12;;;;;;;51.00;6.85;;;;;;;19.65;64.69;102161.00;4935240;29;20908;-52
2022/06/11 08:32:37;;;;;;;35.65;6.13;;;;;;;19.72;61.56;102168.03;4934678;29;20388;-51
2022/06/11 08:35:03;;;;;;;41.30;6.57;;;;;;;19.66;60.26;102173.19;4935425;29;20027;-51
2022/06/11 08:37:28;;;;;;;37.58;6.50;;;;;;;19.79;60.06;102178.59;4934636;29;20046;-53
2022/06/11 08:39:53;;;;;;;40.10;7.32;;;;;;;19.93;58.50;102171.81;4935161;29;20106;-52
2022/06/11 08:42:30;;;;;;;33.40;6.10;;;;;;;20.12;61.67;102174.66;4935254;29;20028;-52
2022/06/11 08:44:57;;;;;;;37.42;5.75;;;;;;;20.13;57.76;102176.41;4934674;29;20054;-52
2022/06/11 08:47:27;;;;;;;36.05;5.70;;;;;;;20.44;60.27;102180.25;4935468;29;20088;-51
2022/06/11 08:49:56;;;;;;;38.55;5.53;;;;;;;20.44;56.76;102181.97;4935229;29;20396;-53
2022/06/11 08:52:26;;;;;;;38.83;5.88;;;;;;;20.72;61.46;102178.78;4934482;29;20041;-53
2022/06/11 08:54:52;;;;;;;48.03;7.13;;;;;;;20.89;58.71;102178.06;4935162;29;20421;-53
2022/06/11 08:57:54;;;;;;;36.58;6.20;;;;;;;21.11;59.09;102176.47;4935251;29;20094;-52
2022/06/11 09:00:25;;;;;;;45.38;6.00;;;;;;;21.03;56.41;102179.03;4934404;29;20032;-53
2022/06/11 09:03:04;;;;;;;37.92;6.22;;;;;;;20.94;56.90;102176.34;4935106;29;20460;-52
2022/06/11 09:05:40;;;;;;;35.38;6.60;;;;;;;20.84;55.73;102170.13;4934995;29;20079;-52
2022/06/11 09:08:40;;;;;;;44.95;7.65;;;;;;;20.74;58.26;102168.31;4935365;29;20059;-53
2022/06/11 09:11:23;;;;;;;35.17;7.30;;;;;;;20.70;56.64;102174.41;4917353;29;20471;-53
2022/06/11 09:14:06;;;;;;;34.70;6.50;;;;;;;20.54;56.11;102170.72;4935179;29;20115;-52
2022/06/11 09:16:34;;;;;;;43.60;6.10;;;;;;;20.32;57.89;102170.53;4938766;29;20036;-52
2022/06/11 09:19:05;;;;;;;37.58;6.18;;;;;;;20.23;57.47;102175.63;4938429;29;20480;-53
2022/06/11 09:21:55;;;;;;;32.63;4.97;;;;;;;20.29;57.58;102165.22;4937813;29;20098;-52
2022/06/11 09:24:46;;;;;;;45.10;7.85;;;;;;;20.13;58.04;102179.00;4938430;29;20547;-52
2022/06/11 09:27:29;;;;;;;35.13;7.28;;;;;;;20.04;58.44;102180.69;4937571;29;20054;-52
2022/06/11 09:30:11;;;;;;;42.42;7.03;;;;;;;20.05;59.75;102173.69;4938353;29;20024;-52
2022/06/11 09:32:46;;;;;;;39.15;6.90;;;;;;;20.14;58.75;102175.53;4938622;29;20036;-52
2022/06/11 09:35:32;;;;;;;33.50;6.07;;;;;;;20.34;59.56;102173.16;4937457;29;20035;-52
2022/06/11 09:38:13;;;;;;;40.20;6.30;;;;;;;20.58;60.33;102177.75;4938285;29;20027;-52
2022/06/11 09:40:42;;;;;;;42.00;6.78;;;;;;;20.75;58.73;102175.31;4938244;29;20090;-53
2022/06/11 09:43:54;;;;;;;39.80;7.75;;;;;;;20.78;58.40;102166.59;4938126;29;20024;-52
2022/06/11 09:46:30;;;;;;;44.80;7.43;;;;;;;20.78;56.10;102174.47;4916870;29;20551;-53
2022/06/11 09:49:22;;;;;;;48.92;7.22;;;;;;;20.70;57.07;102180.50;4916079;29;20095;-52
2022/06/11 09:51:59;;;;;;;49.65;7.03;;;;;;;21.00;56.03;102186.84;4933338;29;20052;-52
2022/06/11 09:54:30;;;;;;;33.57;6.90;;;;;;;20.83;56.26;102178.00;4938062;29;20114;-53
2022/06/11 09:57:23;;;;;;;43.25;8.85;;;;;;;20.86;56.35;102178.00;4937038;29;20027;-53
2022/06/11 09:59:58;;;;;;;48.22;8.57;;;;;;;21.08;57.20;102178.19;4938016;29;20483;-53
2022/06/11 10:05:02;;;;;;;43.75;8.57;;;;;;;21.52;56.13;102180.19;4937749;29;20051;-53
2022/06/11 10:07:35;;;;;;;41.75;8.20;;;;;;;21.68;54.85;102171.56;4937582;29;20443;-52
2022/06/11 10:10:10;;;;;;;45.38;7.72;;;;;;;22.11;54.26;102176.06;4937070;29;20032;-53
2022/06/11 10:12:46;;;;;;;42.53;8.05;;;;;;;22.35;53.95;102169.16;4937855;29;20048;-53
2022/06/11 10:15:18;;;;;;;35.60;7.22;;;;;;;23.10;53.05;102170.91;4937472;29;20038;-54
2022/06/11 10:17:59;;;;;;;29.35;6.68;;;;;;;23.57;50.20;102171.69;4936824;29;20031;-52
2022/06/11 10:20:34;;;;;;;30.75;4.63;;;;;;;23.39;45.65;102171.78;4937627;29;20027;-53
2022/06/11 10:23:16;;;;;;;24.00;4.38;;;;;;;23.37;45.87;102165.63;4936697;29;20115;-53
2022/06/11 10:25:55;;;;;;;27.10;4.47;;;;;;;23.62;45.56;102169.94;4936669;29;20559;-53
2022/06/11 10:28:31;;;;;;;30.48;5.97;;;;;;;23.99;44.53;102180.31;4937341;29;20035;-53
2022/06/11 10:31:07;;;;;;;27.70;4.47;;;;;;;24.68;45.19;102170.22;4936689;29;20038;-54
2022/06/11 10:33:51;;;;;;;30.08;5.35;;;;;;;25.33;42.09;102174.88;4937526;29;20027;-54
2022/06/11 10:36:32;;;;;;;24.02;4.68;;;;;;;26.18;41.48;102171.19;4937138;29;20028;-54
2022/06/11 10:39:06;;;;;;;26.05;4.60;;;;;;;25.98;39.48;102182.03;4936278;29;20028;-54
2022/06/11 10:41:43;;;;;;;29.27;3.95;;;;;;;26.16;37.08;102180.03;4937487;29;20035;-54
2022/06/11 10:44:47;;;;;;;31.10;5.22;;;;;;;26.93;40.68;102185.03;4936277;29;20028;-54
2022/06/11 10:47:36;;;;;;;24.05;4.28;;;;;;;27.20;38.30;102188.03;4936871;29;20039;-54
2022/06/11 10:50:14;;;;;;;27.77;5.10;;;;;;;26.79;38.08;102181.72;4936819;29;20400;-54
2022/06/11 10:53:01;;;;;;;29.88;4.80;;;;;;;27.01;37.70;102179.59;4936260;29;20059;-54
2022/06/11 10:55:48;;;;;;;28.60;4.60;;;;;;;26.32;36.92;102178.06;4936763;29;20035;-54
2022/06/11 10:58:28;;;;;;;;;;;;;;;26.93;38.17;102178.84;4936481;29;20050;-54
2022/06/11 11:01:12;;;;;;;22.20;4.50;;;;;;;26.82;36.72;102179.03;4936685;29;19915;-55
2022/06/11 11:03:49;;;;;;;31.67;5.85;;;;;;;27.32;37.25;102178.13;4936748;29;20044;-54
2022/06/11 11:06:33;;;;;;;30.88;5.47;;;;;;;27.40;37.34;102173.59;4936179;29;20087;-54
2022/06/11 11:09:05;;;;;;;27.98;4.85;;;;;;;27.80;36.61;102175.41;4936604;29;20042;-54
2022/06/11 11:11:39;;;;;;;25.65;5.13;;;;;;;28.20;36.89;102177.19;4936594;29;20035;-55
2022/06/11 11:14:27;;;;;;;39.10;6.93;;;;;;;28.22;37.20;102170.03;4935628;29;20039;-54
2022/06/11 11:16:59;;;;;;;25.98;4.88;;;;;;;28.41;36.91;102170.47;4932410;29;20040;-55
2022/06/11 11:19:28;;;;;;;39.05;5.63;;;;;;;29.19;36.17;102172.03;4935672;29;20850;-55
2022/06/11 11:22:18;;;;;;;26.15;5.05;;;;;;;29.74;36.09;102174.03;4936256;29;20447;-54
2022/06/11 11:24:49;;;;;;;22.25;4.88;;;;;;;29.50;33.30;102165.91;4936274;29;20127;-55
2022/06/11 11:27:25;;;;;;;27.50;5.38;;;;;;;29.26;33.72;102166.53;4935630;29;20028;-55
2022/06/11 11:30:14;;;;;;;30.13;6.03;;;;;;;29.38;34.93;102166.25;4936191;29;20492;-55
2022/06/11 11:32:40;;;;;;;30.92;5.88;;;;;;;28.54;36.00;102163.09;4932903;29;20288;-55
2022/06/11 11:35:27;;;;;;;27.63;5.28;;;;;;;28.64;35.41;102157.53;4935304;29;20031;-54
2022/06/11 11:38:03;;;;;;;28.20;6.38;;;;;;;28.94;36.13;102157.72;4935277;29;20086;-55
2022/06/11 11:40:29;;;;;;;27.35;5.35;;;;;;;29.61;34.33;102162.06;4935224;29;20364;-55
2022/06/11 11:43:04;;;;;;;23.80;4.80;;;;;;;30.43;34.51;102152.38;4936080;29;20028;-55